Aérodrome :
LOGIN :

S'inscrire | Disclaimer

   EN    FR    IT 

 










Légende :    VFR   VFR Marginal   IFR   IFR Intensif   IFR Très Intensif
Visi : 
Plafond : 
>= 8 km
>= 3000ft
5 à 8 km
1000 à 3000 ft
1500m à 5 km
500 à 1000 ft
800 à 1500m
200 à 500 ft
< 800m
< 200 ft
Symboles :   Orages  Brouillard  Fortes neiges  Fortes précipitations  Vent > 20 kt
SIGMETs :   Divers  Orages  Givrage  Turbulence  Onde Orograph.  Cendres Volcan.







- Altitude de l'aérodrome : 1416 ft
- Code IATA : ZRH


LSZH - Zurich

DERNIER METAR :
  • 231520Z VRB02KT 9999 FEW025 BKN034 08/03 Q1027 NOSIG

METARs EXPIRÉS :
  • 231450Z VRB03KT 9999 FEW024 BKN036 08/03 Q1027 NOSIG
  • 231420Z 16004KT 9999 FEW024 BKN038 08/02 Q1027 NOSIG
  • 231350Z 21003KT 9999 FEW024 BKN038 07/02 Q1027 NOSIG
  • 231320Z 22004KT 9999 FEW028 BKN038 07/03 Q1027 NOSIG
  • 231250Z 14003KT 100V180 9999 SCT023 BKN036 07/02 Q1027 NOSIG

TAF TAF LSZH
Valide du 23 à 15h jusqu'au 24 à 21h UTC


231425Z 2315/2421 VRB03KT 9999 FEW025 BKN040 TX09/2315Z TN02/2406Z TX11/2413Z
PROB30 2404/2409 3000 MIFG
BECMG 2408/2411 CAVOK
ATIS : +41 43 816 2295 (DEP) +41 43 816 2294 (ARR)
Pas de NOTAMs connus pour ce terrain.



MET'MAP, la Météo Aéronautique d'un coup d'oeil ! - Copyright ORBIFLY Décembre 2007 - Disclaimer

ORBIFLY MET'MAP TEAM :

Programmation & Développement : Alexandra Zaïnal
Conception & Développement : Baudouin d'Aumeries
Co-Programmation & Développement : Marc-Olivier Méhu
Soutien technique & logistique : Manuel Goepfert

Contact : metmap@orbifly.com




SOURCES & CREDITS :

   NOAA